createdAt,value
2022-09-05T00:00:21.117Z,25.80
2022-09-05T00:03:20.973Z,25.70
2022-09-05T00:06:14.375Z,25.80
2022-09-05T00:09:17.834Z,25.80
2022-09-05T00:12:00.426Z,25.80
2022-09-05T00:15:16.729Z,25.80
2022-09-05T00:21:42.879Z,25.80
2022-09-05T00:24:35.630Z,25.80
2022-09-05T00:25:21.336Z,25.90
2022-09-05T00:28:25.494Z,25.90
2022-09-05T00:31:55.520Z,25.90
2022-09-05T00:35:04.499Z,25.90
2022-09-05T00:37:46.273Z,25.90
2022-09-05T00:40:37.842Z,26.00
2022-09-05T00:43:13.459Z,26.00
2022-09-05T00:45:52.183Z,26.00
2022-09-05T00:48:45.794Z,26.00
2022-09-05T00:51:46.565Z,26.00
2022-09-05T00:54:55.295Z,26.00
2022-09-05T00:57:57.654Z,26.00
2022-09-05T01:00:57.288Z,26.10
2022-09-05T01:04:05.808Z,26.10
2022-09-05T01:07:05.755Z,26.10
2022-09-05T01:10:05.912Z,26.10
2022-09-05T01:13:03.212Z,26.10
2022-09-05T01:16:11.995Z,26.10
2022-09-05T01:19:15.813Z,26.20
2022-09-05T01:22:24.857Z,26.20
2022-09-05T01:25:33.522Z,26.20
2022-09-05T01:29:13.870Z,26.20
2022-09-05T01:31:57.834Z,26.20
2022-09-05T01:35:00.295Z,26.20
2022-09-05T01:37:46.010Z,26.20
2022-09-05T01:40:47.175Z,26.20
2022-09-05T01:43:54.481Z,26.20
2022-09-05T01:46:54.703Z,26.20
2022-09-05T01:49:55.658Z,26.20
2022-09-05T01:53:09.752Z,26.20
2022-09-05T01:56:06.773Z,26.20
2022-09-05T01:59:18.853Z,26.20
2022-09-05T02:02:21.137Z,26.30
2022-09-05T02:05:49.148Z,26.30
2022-09-05T02:08:52.908Z,26.30
2022-09-05T02:11:46.979Z,26.30
2022-09-05T02:14:50.387Z,26.30
2022-09-05T02:17:57.450Z,26.30
2022-09-05T02:20:49.481Z,26.30
2022-09-05T02:23:50.132Z,26.40
2022-09-05T02:26:28.376Z,26.40
2022-09-05T02:29:37.665Z,26.50
2022-09-05T02:32:31.497Z,26.50
2022-09-05T02:35:26.950Z,26.50
2022-09-05T02:40:13.994Z,26.50
2022-09-05T02:45:10.438Z,26.60
2022-09-05T02:45:12.355Z,26.60
2022-09-05T02:47:25.973Z,26.70
2022-09-05T02:54:27.694Z,26.70
2022-09-05T02:57:35.419Z,26.80
2022-09-05T02:57:37.798Z,26.80
2022-09-05T02:59:50.803Z,26.80
2022-09-05T03:02:36.946Z,26.90
2022-09-05T03:05:33.757Z,27.00
2022-09-05T03:08:39.193Z,27.10
2022-09-05T03:11:48.096Z,27.20
2022-09-05T03:14:52.015Z,27.20
2022-09-05T03:18:20.312Z,27.30
2022-09-05T03:21:30.957Z,27.40
2022-09-05T03:24:39.752Z,27.40
2022-09-05T03:27:39.681Z,27.40
2022-09-05T03:30:27.852Z,27.40
2022-09-05T03:33:30.905Z,27.40
2022-09-05T03:36:39.759Z,27.40
2022-09-05T03:39:48.521Z,27.40
2022-09-05T03:42:46.522Z,27.50
2022-09-05T03:45:43.472Z,27.50
2022-09-05T03:48:41.647Z,27.60
2022-09-05T03:57:07.290Z,27.60
2022-09-05T03:57:24.720Z,27.70
2022-09-05T03:58:56.038Z,27.70
2022-09-05T04:08:05.832Z,27.80
2022-09-05T04:08:11.496Z,27.80
2022-09-05T04:08:25.311Z,27.90
2022-09-05T04:10:58.805Z,28.00
2022-09-05T04:13:42.607Z,28.10
2022-09-05T04:16:44.367Z,28.20
2022-09-05T04:19:31.547Z,28.30
2022-09-05T04:22:30.497Z,28.30
2022-09-05T04:25:22.076Z,28.30
2022-09-05T04:28:24.132Z,28.30
2022-09-05T04:31:32.864Z,28.30
2022-09-05T04:34:38.217Z,28.30
2022-09-05T04:37:10.418Z,28.20
2022-09-05T04:39:41.893Z,28.20
2022-09-05T04:42:25.236Z,28.20
2022-09-05T04:45:05.137Z,28.20
2022-09-05T04:47:41.695Z,28.20
2022-09-05T04:50:23.530Z,28.30
2022-09-05T04:53:30.755Z,28.30
2022-09-05T04:56:02.490Z,28.40
2022-09-05T05:01:01.740Z,28.50
2022-09-05T05:06:03.531Z,28.60
2022-09-05T05:06:16.462Z,28.70
2022-09-05T05:07:52.255Z,28.80
2022-09-05T05:14:09.282Z,28.80
2022-09-05T05:17:59.705Z,28.80
2022-09-05T05:18:15.972Z,28.80
2022-09-05T05:19:43.492Z,28.80
2022-09-05T05:22:19.937Z,28.80
2022-09-05T05:24:53.492Z,28.80
2022-09-05T05:27:34.700Z,28.70
2022-09-05T05:30:13.514Z,28.70
2022-09-05T05:32:46.958Z,28.70
2022-09-05T05:35:20.782Z,28.70
2022-09-05T05:38:10.230Z,28.70
2022-09-05T05:40:50.763Z,28.70
2022-09-05T05:43:45.508Z,28.70
2022-09-05T05:46:26.933Z,28.70
2022-09-05T05:49:09.531Z,28.60
2022-09-05T05:52:07.046Z,28.60
2022-09-05T05:54:51.776Z,28.60
2022-09-05T05:58:18.546Z,28.50
2022-09-05T06:01:31.630Z,28.50
2022-09-05T06:04:44.826Z,28.50
2022-09-05T06:08:36.530Z,28.40
2022-09-05T06:14:55.518Z,28.40
2022-09-05T06:15:09.111Z,28.30
2022-09-05T06:18:16.183Z,28.30
2022-09-05T06:22:08.868Z,28.30
2022-09-05T06:24:58.082Z,28.30
2022-09-05T06:28:19.072Z,28.20
2022-09-05T06:31:30.834Z,28.20
2022-09-05T06:34:40.215Z,28.10
2022-09-05T06:37:48.985Z,28.00
2022-09-05T06:40:36.588Z,28.00
2022-09-05T06:43:27.879Z,28.00
2022-09-05T06:46:52.866Z,28.00
2022-09-05T06:49:46.199Z,27.90
2022-09-05T06:52:52.377Z,27.90
2022-09-05T06:56:01.062Z,27.80
2022-09-05T06:59:07.748Z,27.70
2022-09-05T07:02:01.055Z,27.70
2022-09-05T07:05:24.689Z,27.60
2022-09-05T07:08:20.430Z,27.50
2022-09-05T07:11:16.551Z,27.40
2022-09-05T07:14:10.667Z,27.40
2022-09-05T07:17:07.487Z,27.30
2022-09-05T07:20:00.454Z,27.20
2022-09-05T07:22:56.314Z,27.20
2022-09-05T07:25:50.925Z,27.20
2022-09-05T07:28:29.104Z,27.20
2022-09-05T07:31:08.375Z,27.20
2022-09-05T07:33:42.566Z,27.10
2022-09-05T07:36:18.845Z,27.10
2022-09-05T07:39:02.274Z,27.10
2022-09-05T07:41:41.345Z,27.10
2022-09-05T07:44:29.367Z,27.10
2022-09-05T07:47:11.143Z,27.00
2022-09-05T07:49:57.978Z,27.00
2022-09-05T07:56:53.093Z,27.00
2022-09-05T07:56:56.943Z,27.00
2022-09-05T07:58:26.365Z,27.00
2022-09-05T08:00:59.942Z,27.00
2022-09-05T08:03:33.660Z,27.00
2022-09-05T08:06:10.755Z,26.90
2022-09-05T08:10:00.907Z,27.00
2022-09-05T08:12:09.416Z,27.00
2022-09-05T08:14:47.645Z,27.00
2022-09-05T08:17:30.196Z,26.90
2022-09-05T08:20:28.839Z,26.90
2022-09-05T08:23:31.411Z,27.00
2022-09-05T08:26:24.875Z,26.90
2022-09-05T08:29:05.088Z,26.90
2022-09-05T08:31:53.171Z,26.90
2022-09-05T08:34:44.709Z,26.80
2022-09-05T08:37:21.882Z,26.80
2022-09-05T08:39:57.521Z,26.80
2022-09-05T08:46:35.283Z,26.80
2022-09-05T08:46:42.802Z,26.70
2022-09-05T08:49:48.897Z,26.70
2022-09-05T08:52:57.651Z,26.70
2022-09-05T08:56:06.335Z,26.70
2022-09-05T08:59:31.826Z,26.60
2022-09-05T09:02:47.590Z,26.50
2022-09-05T09:06:12.870Z,26.40
2022-09-05T09:09:20.047Z,26.30
2022-09-05T09:11:59.356Z,26.30
2022-09-05T09:15:06.040Z,26.20
2022-09-05T09:17:51.906Z,26.20
2022-09-05T09:21:00.558Z,26.10
2022-09-05T09:23:52.195Z,26.10
2022-09-05T09:26:31.974Z,26.10
2022-09-05T09:29:21.907Z,26.10
2022-09-05T09:32:16.660Z,26.10
2022-09-05T09:35:11.174Z,26.00
2022-09-05T09:38:20.005Z,26.00
2022-09-05T09:41:28.827Z,25.90
2022-09-05T09:44:28.573Z,25.90
2022-09-05T09:46:59.077Z,25.80
2022-09-05T09:50:04.308Z,25.80
2022-09-05T09:53:03.674Z,25.70
2022-09-05T09:56:11.646Z,25.80
2022-09-05T09:59:20.456Z,25.70
2022-09-05T10:04:31.224Z,25.80
2022-09-05T10:10:40.208Z,25.70
2022-09-05T10:10:57.757Z,25.70
2022-09-05T10:12:35.164Z,25.70
2022-09-05T10:15:36.465Z,25.70
2022-09-05T10:18:33.265Z,25.70
2022-09-05T10:21:41.904Z,25.60
2022-09-05T10:24:43.190Z,25.60
2022-09-05T10:27:44.572Z,25.50
2022-09-05T10:33:03.796Z,25.50
2022-09-05T10:35:23.148Z,25.50
2022-09-05T10:37:07.023Z,25.60
2022-09-05T10:39:40.953Z,25.50
2022-09-05T10:42:29.121Z,25.60
2022-09-05T10:45:00.899Z,25.50
2022-09-05T10:47:50.185Z,25.50
2022-09-05T10:50:32.047Z,25.50
2022-09-05T10:53:39.225Z,25.40
2022-09-05T10:56:23.334Z,25.40
2022-09-05T11:02:09.483Z,25.30
2022-09-05T11:02:34.911Z,25.20
2022-09-05T11:05:28.404Z,25.10
2022-09-05T11:08:29.677Z,25.10
2022-09-05T11:11:28.132Z,25.00
2022-09-05T11:14:12.154Z,25.10
2022-09-05T11:17:16.115Z,25.00
2022-09-05T11:20:23.738Z,25.10
2022-09-05T11:23:11.620Z,25.10
2022-09-05T11:25:42.841Z,25.10
2022-09-05T11:28:24.264Z,25.00
2022-09-05T11:30:58.791Z,25.00
2022-09-05T11:39:48.129Z,25.00
2022-09-05T11:40:04.815Z,25.00
2022-09-05T11:40:43.620Z,24.90
2022-09-05T11:43:50.251Z,24.90
2022-09-05T11:46:47.605Z,24.90
2022-09-05T11:50:00.805Z,24.80
2022-09-05T11:53:01.660Z,24.80
2022-09-05T11:55:55.147Z,24.80
2022-09-05T11:58:50.814Z,24.80
2022-09-05T12:02:08.384Z,24.80
2022-09-05T12:05:49.849Z,24.80
2022-09-05T12:08:38.446Z,24.80
2022-09-05T12:11:47.264Z,24.80
2022-09-05T12:14:49.300Z,24.80
2022-09-05T12:17:35.064Z,24.70
2022-09-05T12:20:44.475Z,24.70
2022-09-05T12:23:53.579Z,24.70
2022-09-05T12:27:41.953Z,24.60
2022-09-05T12:30:00.899Z,24.60
2022-09-05T12:35:18.298Z,24.60
2022-09-05T12:36:10.636Z,24.60
2022-09-05T12:41:34.719Z,24.60
2022-09-05T12:42:20.641Z,24.60
2022-09-05T12:45:37.467Z,24.60
2022-09-05T12:48:39.465Z,24.60
2022-09-05T12:51:45.447Z,24.60
2022-09-05T12:54:33.241Z,24.60
2022-09-05T13:02:13.325Z,24.60
2022-09-05T13:03:11.723Z,24.60
2022-09-05T13:03:26.985Z,24.70
2022-09-05T13:06:19.506Z,24.70
2022-09-05T13:09:04.542Z,24.80
2022-09-05T13:14:49.162Z,24.80
2022-09-05T13:15:22.697Z,24.80
2022-09-05T13:18:17.177Z,24.80
2022-09-05T13:21:06.839Z,24.80
2022-09-05T13:23:55.757Z,24.80
2022-09-05T13:26:55.486Z,24.80
2022-09-05T13:29:44.227Z,24.90
2022-09-05T13:37:58.606Z,24.90
2022-09-05T13:38:00.108Z,24.80
2022-09-05T13:38:58.069Z,24.90
2022-09-05T13:41:32.553Z,24.90
2022-09-05T13:44:27.646Z,24.90
2022-09-05T13:47:14.788Z,24.90
2022-09-05T13:50:36.541Z,25.00
2022-09-05T13:53:38.947Z,24.90
2022-09-05T13:56:29.913Z,24.90
2022-09-05T13:59:10.423Z,24.90
2022-09-05T14:02:25.906Z,24.90
2022-09-05T14:05:34.404Z,24.90
2022-09-05T14:08:35.234Z,24.90
2022-09-05T14:11:44.745Z,24.80
2022-09-05T14:17:53.707Z,24.80
2022-09-05T14:20:50.511Z,24.80
2022-09-05T14:23:24.656Z,24.80
2022-09-05T14:26:03.138Z,24.80
2022-09-05T14:28:42.118Z,24.80
2022-09-05T14:37:34.310Z,24.80
2022-09-05T14:38:00.660Z,24.70
2022-09-05T14:38:09.258Z,24.80
2022-09-05T14:41:23.327Z,24.70
2022-09-05T14:44:18.995Z,24.70
2022-09-05T14:47:32.517Z,24.80
2022-09-05T14:50:32.145Z,24.70
2022-09-05T14:57:32.187Z,24.70
2022-09-05T15:02:42.472Z,24.70
2022-09-05T15:03:00.880Z,24.70
2022-09-05T15:05:47.806Z,24.70
2022-09-05T15:11:47.286Z,24.70
2022-09-05T15:12:19.618Z,24.70
2022-09-05T15:14:15.677Z,24.80
2022-09-05T15:17:02.777Z,24.80
2022-09-05T15:20:05.262Z,24.80
2022-09-05T15:22:43.503Z,24.80
2022-09-05T15:25:22.966Z,24.80
2022-09-05T15:27:53.576Z,24.80
2022-09-05T15:30:34.978Z,24.80
2022-09-05T15:33:26.488Z,24.80
2022-09-05T15:35:58.330Z,24.80
2022-09-05T15:38:54.429Z,24.90
2022-09-05T15:41:29.894Z,24.80
2022-09-05T15:44:09.705Z,24.90
2022-09-05T15:47:05.465Z,24.80
2022-09-05T15:49:59.899Z,24.90
2022-09-05T15:52:53.540Z,24.90
2022-09-05T15:55:29.001Z,24.90
2022-09-05T15:58:03.585Z,24.90
2022-09-05T16:00:57.337Z,24.90
2022-09-05T16:08:15.340Z,24.90
2022-09-05T16:10:28.966Z,24.90
2022-09-05T16:10:44.810Z,24.80
2022-09-05T16:17:41.853Z,24.70
2022-09-05T16:23:12.194Z,24.70
2022-09-05T16:23:27.401Z,24.70
2022-09-05T16:24:05.682Z,24.70
2022-09-05T16:26:49.262Z,24.60
2022-09-05T16:29:32.563Z,24.60
2022-09-05T16:32:17.187Z,24.60
2022-09-05T16:34:57.095Z,24.60
2022-09-05T16:37:52.978Z,24.60
2022-09-05T16:40:32.716Z,24.60
2022-09-05T16:43:31.399Z,24.60
2022-09-05T16:46:26.222Z,24.60
2022-09-05T16:49:41.651Z,24.60
2022-09-05T16:52:17.245Z,24.60
2022-09-05T16:55:29.368Z,24.60
2022-09-05T16:58:17.799Z,24.60
2022-09-05T17:01:22.059Z,24.60
2022-09-05T17:04:20.644Z,24.60
2022-09-05T17:07:15.129Z,24.60
2022-09-05T17:09:46.436Z,24.50
2022-09-05T17:12:29.758Z,24.60
2022-09-05T17:15:09.786Z,24.50
2022-09-05T17:18:19.908Z,24.50
2022-09-05T17:20:59.017Z,24.50
2022-09-05T17:29:16.405Z,24.50
2022-09-05T17:29:28.936Z,24.50
2022-09-05T17:32:52.365Z,24.50
2022-09-05T17:35:43.756Z,24.50
2022-09-05T17:38:52.443Z,24.50
2022-09-05T17:42:01.461Z,24.60
2022-09-05T17:45:10.462Z,24.60
2022-09-05T17:47:55.462Z,24.60
2022-09-05T17:50:52.745Z,24.60
2022-09-05T17:53:27.492Z,24.70
2022-09-05T17:56:13.929Z,24.60
2022-09-05T17:59:05.416Z,24.70
2022-09-05T18:01:37.725Z,24.70
2022-09-05T18:04:17.579Z,24.60
2022-09-05T18:06:59.185Z,24.60
2022-09-05T18:10:12.102Z,24.60
2022-09-05T18:13:13.713Z,24.60
2022-09-05T18:16:12.454Z,24.60
2022-09-05T18:19:32.574Z,24.60
2022-09-05T18:21:51.454Z,24.60
2022-09-05T18:25:13.941Z,24.50
2022-09-05T18:28:13.220Z,24.50
2022-09-05T18:30:43.428Z,24.50
2022-09-05T18:33:55.029Z,24.50
2022-09-05T18:36:36.532Z,24.50
2022-09-05T18:39:45.713Z,24.50
2022-09-05T18:42:33.325Z,24.50
2022-09-05T18:45:18.504Z,24.40
2022-09-05T18:48:01.719Z,24.40
2022-09-05T18:50:41.105Z,24.40
2022-09-05T18:53:14.342Z,24.40
2022-09-05T18:56:20.147Z,24.40
2022-09-05T18:59:29.610Z,24.40
2022-09-05T19:02:26.875Z,24.40
2022-09-05T19:05:18.972Z,24.40
2022-09-05T19:08:02.660Z,24.40
2022-09-05T19:10:37.850Z,24.50
2022-09-05T19:13:19.082Z,24.50
2022-09-05T19:16:21.217Z,24.60
2022-09-05T19:19:29.849Z,24.50
2022-09-05T19:23:06.715Z,24.60
2022-09-05T19:24:54.572Z,24.50
2022-09-05T19:27:34.235Z,24.60
2022-09-05T19:36:53.754Z,24.60
2022-09-05T19:37:07.575Z,24.60
2022-09-05T19:37:13.410Z,24.50
2022-09-05T19:43:01.239Z,24.60
2022-09-05T19:47:35.661Z,24.60
2022-09-05T19:47:36.676Z,24.60
2022-09-05T19:48:07.655Z,24.60
2022-09-05T19:50:37.765Z,24.50
2022-09-05T19:53:12.275Z,24.50
2022-09-05T19:55:42.142Z,24.50
2022-09-05T19:58:21.350Z,24.50
2022-09-05T20:01:09.873Z,24.50
2022-09-05T20:03:44.893Z,24.50
2022-09-05T20:06:30.836Z,24.50
2022-09-05T20:09:19.146Z,24.50
2022-09-05T20:11:55.896Z,24.50
2022-09-05T20:14:38.352Z,24.50
2022-09-05T20:17:30.373Z,24.50
2022-09-05T20:20:17.753Z,24.50
2022-09-05T20:22:50.992Z,24.50
2022-09-05T20:25:41.555Z,24.50
2022-09-05T20:28:18.696Z,24.50
2022-09-05T20:30:53.878Z,24.50
2022-09-05T20:33:44.895Z,24.50
2022-09-05T20:43:09.785Z,24.50
2022-09-05T20:43:18.015Z,24.50
2022-09-05T20:43:21.749Z,24.50
2022-09-05T20:44:53.835Z,24.50
2022-09-05T20:54:08.737Z,24.60
2022-09-05T20:54:27.234Z,24.60
2022-09-05T20:54:28.445Z,24.50
2022-09-05T20:56:32.534Z,24.60
2022-09-05T20:59:02.528Z,24.50
2022-09-05T21:01:34.170Z,24.50
2022-09-05T21:04:06.062Z,24.60
2022-09-05T21:06:37.896Z,24.60
2022-09-05T21:09:25.260Z,24.60
2022-09-05T21:11:56.305Z,24.50
2022-09-05T21:14:29.414Z,24.60
2022-09-05T21:17:11.995Z,24.60
2022-09-05T21:19:47.987Z,24.60
2022-09-05T21:22:43.364Z,24.50
2022-09-05T21:25:41.368Z,24.60
2022-09-05T21:28:36.579Z,24.60
2022-09-05T21:31:15.857Z,24.50
2022-09-05T21:33:46.860Z,24.60
2022-09-05T21:36:17.727Z,24.60
2022-09-05T21:38:47.545Z,24.60
2022-09-05T21:41:18.727Z,24.50
2022-09-05T21:47:37.837Z,24.60
2022-09-05T21:47:49.748Z,24.60
2022-09-05T21:49:35.555Z,24.50
2022-09-05T21:52:09.843Z,24.50
2022-09-05T21:59:19.388Z,24.50
2022-09-05T21:59:30.400Z,24.50
2022-09-05T22:00:24.898Z,24.50
2022-09-05T22:02:55.007Z,24.50
2022-09-05T22:05:26.843Z,24.50
2022-09-05T22:07:57.354Z,24.50
2022-09-05T22:10:35.441Z,24.50
2022-09-05T22:13:17.424Z,24.50
2022-09-05T22:15:50.227Z,24.50
2022-09-05T22:18:19.873Z,24.50
2022-09-05T22:21:33.405Z,24.50
2022-09-05T22:23:46.083Z,24.50
2022-09-05T22:26:17.829Z,24.50
2022-09-05T22:28:51.138Z,24.50
2022-09-05T22:31:22.065Z,24.50
2022-09-05T22:33:52.106Z,24.50
2022-09-05T22:36:21.963Z,24.50
2022-09-05T22:38:51.818Z,24.40
2022-09-05T22:41:30.213Z,24.40
2022-09-05T22:44:00.823Z,24.40
2022-09-05T22:46:31.120Z,24.30
2022-09-05T22:49:01.069Z,24.30
2022-09-05T22:51:30.791Z,24.30
2022-09-05T22:54:00.670Z,24.30
2022-09-05T22:56:36.883Z,24.30
2022-09-05T22:59:07.464Z,24.30
2022-09-05T23:01:37.145Z,24.30
2022-09-05T23:04:06.913Z,24.30
2022-09-05T23:06:36.776Z,24.30
2022-09-05T23:09:06.512Z,24.30
2022-09-05T23:11:36.095Z,24.40
2022-09-05T23:14:05.737Z,24.40
2022-09-05T23:16:35.347Z,24.40
2022-09-05T23:19:04.984Z,24.30
2022-09-05T23:21:36.098Z,24.40
2022-09-05T23:24:06.231Z,24.40
2022-09-05T23:26:36.217Z,24.40
2022-09-05T23:29:06.362Z,24.40
2022-09-05T23:31:37.435Z,24.40
2022-09-05T23:34:07.575Z,24.40
2022-09-05T23:36:37.882Z,24.40
2022-09-05T23:39:07.838Z,24.40
2022-09-05T23:41:37.706Z,24.40
2022-09-05T23:44:07.686Z,24.40
2022-09-05T23:46:39.579Z,24.40
2022-09-05T23:49:09.798Z,24.50
2022-09-05T23:51:39.756Z,24.40
2022-09-05T23:54:09.785Z,24.50
2022-09-05T23:56:39.713Z,24.50
2022-09-05T23:59:09.900Z,24.40
